Time;durP1;ratioP1;P1;durP2;ratioP2;P2;SDS_P1;SDS_P2;PMS_P1;PMS_P2;Temp;Humidity;BMP_temperature;BMP_pressure;BME280_temperature;BME280_humidity;BME280_pressure;Samples;Min_cycle;Max_cycle;Signal;HPM_P1;HPM_P2
2023/01/01 00:01:11;;;;;;;;;7.50;6.00;;;;;16.25;44.43;100754.56;5044553;28;45344;-45
2023/01/01 00:03:37;;;;;;;;;13.25;10.75;;;;;16.26;44.05;100760.72;5039941;28;45836;-43
2023/01/01 00:06:10;;;;;;;;;11.50;9.75;;;;;16.24;44.12;100746.75;5044808;28;52263;-46
2023/01/01 00:08:36;;;;;;;;;13.50;11.00;;;;;16.25;44.53;100746.66;5042603;28;45242;-44
2023/01/01 00:11:03;;;;;;;;;6.50;5.25;;;;;16.24;44.53;100744.97;5047912;28;45461;-45
2023/01/01 00:13:28;;;;;;;;;12.00;9.75;;;;;16.24;44.55;100746.75;5040837;28;45241;-45
2023/01/01 00:15:54;;;;;;;;;11.50;6.75;;;;;16.23;44.48;100748.53;5044011;28;45834;-44
2023/01/01 00:18:19;;;;;;;;;7.00;6.00;;;;;16.23;44.74;100752.94;5046139;28;45471;-47
2023/01/01 00:20:44;;;;;;;;;8.25;7.25;;;;;16.21;44.48;100746.91;5042784;28;45513;-47
2023/01/01 00:23:11;;;;;;;;;5.25;4.50;;;;;16.20;44.67;100753.09;5031134;28;60213;-45
2023/01/01 00:25:38;;;;;;;;;23.00;14.75;;;;;16.19;45.16;100744.34;5042963;28;45493;-45
2023/01/01 00:28:04;;;;;;;;;11.50;9.50;;;;;16.18;45.35;100747.88;5047768;28;45288;-46
2023/01/01 00:30:29;;;;;;;;;10.75;9.50;;;;;16.20;45.26;100759.25;5043117;28;47994;-45
2023/01/01 00:32:54;;;;;;;;;25.25;17.75;;;;;16.19;45.04;100751.41;5046017;28;67206;-44
2023/01/01 00:35:20;;;;;;;;;8.50;5.75;;;;;16.19;45.19;100760.19;5047881;28;46006;-48
2023/01/01 00:37:45;;;;;;;;;9.00;5.75;;;;;16.20;45.31;100753.97;5040880;28;57684;-46
2023/01/01 00:40:11;;;;;;;;;8.75;5.00;;;;;16.20;45.60;100743.41;5048692;28;55502;-44
2023/01/01 00:42:39;;;;;;;;;9.00;7.00;;;;;16.20;45.65;100751.34;5046626;28;45423;-46
2023/01/01 00:45:06;;;;;;;;;6.75;5.50;;;;;16.22;45.48;100743.31;5045917;28;45611;-45
2023/01/01 00:47:31;;;;;;;;;8.50;7.50;;;;;16.22;45.18;100746.81;5040867;28;45419;-46
2023/01/01 00:49:56;;;;;;;;;6.75;6.75;;;;;16.21;45.86;100745.09;5053787;28;48363;-47
2023/01/01 00:52:22;;;;;;;;;7.00;6.50;;;;;16.19;45.50;100746.13;5051201;28;45451;-46
2023/01/01 00:54:47;;;;;;;;;4.00;4.00;;;;;16.21;45.61;100741.63;5040519;28;58730;-48
2023/01/01 00:57:12;;;;;;;;;3.50;3.00;;;;;16.20;45.77;100739.91;5030708;28;45434;-48
2023/01/01 00:59:38;;;;;;;;;6.75;4.75;;;;;16.19;45.79;100746.13;5040221;28;54398;-46
2023/01/01 01:02:04;;;;;;;;;5.75;5.75;;;;;16.18;45.93;100739.97;5044544;28;46414;-45
2023/01/01 01:04:29;;;;;;;;;10.00;6.25;;;;;16.17;45.90;100733.00;5053224;28;45462;-44
2023/01/01 01:06:54;;;;;;;;;6.50;4.50;;;;;16.17;46.02;100733.00;5042246;28;45460;-46
2023/01/01 01:09:20;;;;;;;;;13.00;10.00;;;;;16.18;46.12;100731.19;5047448;28;55806;-46
2023/01/01 01:11:45;;;;;;;;;7.50;5.00;;;;;16.14;46.26;100747.19;5040266;28;65828;-46
2023/01/01 01:14:10;;;;;;;;;13.00;9.00;;;;;16.18;46.47;100739.13;5043740;28;56076;-44
2023/01/01 01:16:36;;;;;;;;;12.00;8.00;;;;;16.18;46.25;100760.25;5046851;28;62793;-48
2023/01/01 01:19:03;;;;;;;;;6.50;5.75;;;;;16.16;46.33;100755.03;5051856;28;55746;-44
2023/01/01 01:21:30;;;;;;;;;9.50;7.75;;;;;16.13;46.54;100749.94;5042141;28;45374;-46
2023/01/01 01:23:59;;;;;;;;;6.75;5.00;;;;;16.14;46.56;100762.19;5053129;28;46305;-47
2023/01/01 01:26:32;;;;;;;;;6.00;4.50;;;;;16.13;46.74;100755.22;5042077;28;48148;-43
2023/01/01 01:28:58;;;;;;;;;10.00;5.75;;;;;16.09;46.67;100761.56;5046692;28;45388;-49
2023/01/01 01:31:26;;;;;;;;;8.50;7.50;;;;;16.09;46.87;100759.75;5047510;28;45495;-50
2023/01/01 01:33:52;;;;;;;;;8.50;5.75;;;;;16.09;46.89;100746.56;5040025;28;45732;-47
2023/01/01 01:36:18;;;;;;;;;4.75;2.50;;;;;16.10;46.92;100755.34;5043136;28;45448;-49
2023/01/01 01:38:43;;;;;;;;;9.00;5.50;;;;;16.10;47.38;100763.28;5051407;28;45567;-45
2023/01/01 01:41:11;;;;;;;;;4.50;4.50;;;;;16.09;47.17;100772.13;5048334;28;45376;-50
2023/01/01 01:43:36;;;;;;;;;9.50;5.00;;;;;16.09;47.20;100770.31;5040129;28;46041;-49
2023/01/01 01:46:04;;;;;;;;;8.50;5.00;;;;;16.09;47.15;100778.25;5048780;28;45435;-47
2023/01/01 01:48:36;;;;;;;;;10.25;7.50;;;;;16.08;47.44;100788.91;5046484;28;45303;-43
2023/01/01 01:51:01;;;;;;;;;7.00;7.00;;;;;16.06;47.49;100794.25;5049764;28;45301;-44
2023/01/01 01:53:29;;;;;;;;;8.50;7.25;;;;;16.06;47.38;100781.06;5042223;28;45486;-45
2023/01/01 01:56:06;;;;;;;;;10.75;8.00;;;;;16.07;47.91;100785.38;5047598;28;45202;-44
2023/01/01 01:58:32;;;;;;;;;8.25;7.75;;;;;16.08;47.94;100787.13;5049859;28;45517;-46
2023/01/01 02:00:58;;;;;;;;;7.75;7.75;;;;;16.07;48.12;100801.22;5043095;28;63389;-45
2023/01/01 02:03:59;;;;;;;;;5.25;5.00;;;;;16.11;48.30;100794.00;5050723;28;67088;-44
2023/01/01 02:06:30;;;;;;;;;7.75;5.50;;;;;16.10;47.91;100798.44;5038434;28;45333;-46
2023/01/01 02:09:00;;;;;;;;;7.50;7.50;;;;;16.09;48.28;100814.34;5038720;28;45329;-48
2023/01/01 02:11:26;;;;;;;;;9.50;8.25;;;;;16.09;48.29;100798.53;5046282;28;45386;-47
2023/01/01 02:13:53;;;;;;;;;6.50;6.50;;;;;16.08;48.00;100796.81;5039908;28;47636;-45
2023/01/01 02:16:34;;;;;;;;;10.00;6.25;;;;;16.09;47.98;100809.06;5034932;28;45542;-45
2023/01/01 02:19:14;;;;;;;;;6.25;5.75;;;;;16.09;48.22;100814.34;5054221;28;45308;-49
2023/01/01 02:22:21;;;;;;;;;9.50;7.50;;;;;16.08;48.44;100824.06;5048194;28;45403;-47
2023/01/01 02:25:03;;;;;;;;;9.00;8.00;;;;;16.08;48.27;100818.78;5014094;28;46236;-45
2023/01/01 02:27:50;;;;;;;;;13.50;8.75;;;;;16.07;48.48;100813.59;5047514;28;45276;-44
2023/01/01 02:30:16;;;;;;;;;10.50;6.75;;;;;16.07;48.77;100816.22;5044583;28;45512;-46
2023/01/01 02:32:54;;;;;;;;;9.50;7.75;;;;;16.06;48.74;100812.75;5038024;28;45448;-44
2023/01/01 02:35:37;;;;;;;;;11.25;6.50;;;;;16.06;48.98;100810.09;5051317;28;46078;-46
2023/01/01 02:38:29;;;;;;;;;9.25;6.50;;;;;16.05;48.93;100818.94;5045690;28;45339;-46
2023/01/01 02:40:58;;;;;;;;;9.75;7.50;;;;;16.05;49.08;100824.22;5050360;28;45339;-47
2023/01/01 02:43:24;;;;;;;;;7.50;6.25;;;;;16.06;48.91;100825.94;5047738;28;45376;-50
2023/01/01 02:45:49;;;;;;;;;10.75;7.50;;;;;16.06;48.89;100825.06;5047163;28;65721;-50
2023/01/01 02:48:53;;;;;;;;;10.25;6.75;;;;;16.06;49.25;100835.63;5046065;28;59802;-49
2023/01/01 02:51:21;;;;;;;;;10.75;8.50;;;;;16.04;49.32;100832.19;4989752;28;56846;-47
2023/01/01 02:54:01;;;;;;;;;8.50;7.25;;;;;16.03;49.08;100827.88;4972083;28;45378;-44
2023/01/01 02:56:33;;;;;;;;;7.00;7.00;;;;;16.01;49.54;100840.28;5023398;28;45982;-47
2023/01/01 03:02:15;;;;;;;;;13.00;10.50;;;;;15.99;49.46;100842.13;4998538;28;45531;-44
2023/01/01 03:05:04;;;;;;;;;11.00;8.00;;;;;16.00;49.48;100838.56;4974640;28;45746;-44
2023/01/01 03:07:40;;;;;;;;;7.00;6.00;;;;;15.99;49.54;100832.44;5030621;28;45400;-44
2023/01/01 03:10:15;;;;;;;;;9.00;6.75;;;;;15.99;49.67;100839.47;5056685;28;45330;-45
2023/01/01 03:12:56;;;;;;;;;6.00;3.75;;;;;15.97;49.50;100842.22;5038110;28;45581;-44
2023/01/01 03:15:43;;;;;;;;;10.25;6.50;;;;;15.96;49.52;100829.94;5053470;28;45643;-46
2023/01/01 03:18:24;;;;;;;;;11.25;8.00;;;;;15.96;49.87;100829.09;5049517;28;45510;-44
2023/01/01 03:20:53;;;;;;;;;6.50;5.50;;;;;15.96;50.02;100832.59;5052846;28;45494;-47
2023/01/01 03:23:23;;;;;;;;;7.00;5.75;;;;;15.96;50.00;100839.66;5046586;28;45324;-48
2023/01/01 03:25:51;;;;;;;;;9.00;7.75;;;;;15.94;49.79;100839.72;5051384;28;45387;-49
2023/01/01 03:28:30;;;;;;;;;11.25;9.50;;;;;15.92;49.87;100845.06;5043886;28;45383;-44
2023/01/01 03:30:56;;;;;;;;;9.50;8.75;;;;;15.92;50.22;100845.06;5049859;28;45498;-46
2023/01/01 03:33:37;;;;;;;;;12.00;8.50;;;;;15.91;50.26;100856.53;5045564;28;45379;-46
2023/01/01 03:36:06;;;;;;;;;9.50;6.25;;;;;15.90;50.31;100852.22;5044600;28;45480;-44
2023/01/01 03:38:39;;;;;;;;;12.25;8.00;;;;;15.88;50.33;100864.63;5058252;28;45408;-47
2023/01/01 03:41:52;;;;;;;;;10.00;6.50;;;;;15.87;50.51;100868.19;5053839;28;45393;-45
2023/01/01 03:44:27;;;;;;;;;7.25;6.50;;;;;15.87;50.59;100872.63;5029143;28;45364;-47
2023/01/01 03:46:53;;;;;;;;;9.00;8.00;;;;;15.86;50.27;100866.47;5045516;28;45652;-48
2023/01/01 03:49:19;;;;;;;;;8.25;6.25;;;;;15.84;50.59;100870.09;5052103;28;67491;-44
2023/01/01 03:52:06;;;;;;;;;8.00;6.50;;;;;15.84;50.45;100873.59;5051844;28;45347;-44
2023/01/01 03:54:34;;;;;;;;;7.75;5.00;;;;;15.81;50.60;100857.94;5045299;28;45288;-44
2023/01/01 03:57:24;;;;;;;;;7.00;6.25;;;;;15.79;50.46;100865.03;5050444;28;45370;-43
2023/01/01 04:00:08;;;;;;;;;7.25;4.25;;;;;15.78;50.57;100884.44;5050648;28;46499;-44
2023/01/01 04:02:59;;;;;;;;;8.50;7.25;;;;;15.78;50.49;100881.81;5040397;28;45379;-46
2023/01/01 04:05:26;;;;;;;;;7.25;7.25;;;;;15.78;50.60;100873.06;5049169;28;45569;-44
2023/01/01 04:07:52;;;;;;;;;6.00;4.25;;;;;15.80;50.74;100884.38;5032680;28;45989;-43
2023/01/01 04:10:18;;;;;;;;;11.50;9.25;;;;;15.81;51.12;100889.59;5046818;28;56565;-43
2023/01/01 04:12:49;;;;;;;;;10.00;7.00;;;;;15.80;50.97;100901.06;5050575;28;45885;-45
2023/01/01 04:15:16;;;;;;;;;8.75;6.25;;;;;15.79;50.86;100898.50;5050180;28;45446;-44
2023/01/01 04:17:41;;;;;;;;;10.00;8.75;;;;;15.77;50.86;100897.72;5039382;28;45411;-44
2023/01/01 04:20:08;;;;;;;;;14.25;11.00;;;;;15.77;51.12;100889.78;5054021;28;59698;-44
2023/01/01 04:22:33;;;;;;;;;6.25;6.00;;;;;15.77;51.14;100895.06;5052115;28;45479;-45
2023/01/01 04:24:59;;;;;;;;;12.50;7.00;;;;;15.78;51.07;100888.88;5043297;28;45389;-45
2023/01/01 04:27:24;;;;;;;;;10.50;9.25;;;;;15.77;51.07;100901.19;5045178;28;52737;-47
2023/01/01 04:29:50;;;;;;;;;9.00;6.50;;;;;15.77;51.32;100909.13;5042981;28;46280;-45
2023/01/01 04:32:15;;;;;;;;;7.50;6.50;;;;;15.77;51.30;100911.75;5041558;28;45283;-45
2023/01/01 04:34:41;;;;;;;;;12.00;9.50;;;;;15.74;51.48;100904.84;5048094;28;45402;-45
2023/01/01 04:37:06;;;;;;;;;11.50;8.75;;;;;15.74;51.27;100904.84;5041130;28;58453;-44
2023/01/01 04:39:31;;;;;;;;;7.25;6.00;;;;;15.73;51.77;100902.25;5052242;28;46056;-45
2023/01/01 04:41:57;;;;;;;;;13.00;7.75;;;;;15.73;51.56;100904.88;5043009;28;45379;-44
2023/01/01 04:44:22;;;;;;;;;10.75;9.50;;;;;15.73;51.51;100911.00;5051979;28;55243;-43
2023/01/01 04:46:47;;;;;;;;;7.00;7.00;;;;;15.73;51.32;100905.72;5048948;28;60860;-44
2023/01/01 04:49:13;;;;;;;;;17.50;11.75;;;;;15.73;51.52;100908.38;5043776;28;46976;-46
2023/01/01 04:51:38;;;;;;;;;11.50;7.00;;;;;15.72;51.19;100900.53;5035363;28;54023;-44
2023/01/01 04:54:03;;;;;;;;;8.75;5.50;;;;;15.71;51.91;100912.03;5040541;28;45670;-44
2023/01/01 04:56:29;;;;;;;;;11.50;7.25;;;;;15.72;51.60;100909.31;5049052;28;45294;-43
2023/01/01 04:58:56;;;;;;;;;10.50;8.50;;;;;15.72;51.44;100913.72;5043363;28;53068;-44
2023/01/01 05:01:26;;;;;;;;;11.25;9.00;;;;;15.70;51.96;100918.22;5045432;28;45507;-43
2023/01/01 05:03:52;;;;;;;;;8.50;6.25;;;;;15.68;51.51;100910.34;5048034;28;45445;-45
2023/01/01 05:06:18;;;;;;;;;8.75;6.00;;;;;15.68;52.32;100913.00;5052414;28;45339;-46
2023/01/01 05:08:45;;;;;;;;;9.75;4.50;;;;;15.66;52.14;100914.84;5054678;28;47320;-43
2023/01/01 05:11:18;;;;;;;;;9.50;7.50;;;;;15.64;51.97;100915.84;5046603;28;45777;-47
2023/01/01 05:13:46;;;;;;;;;6.75;5.50;;;;;15.66;51.95;100912.22;5040309;28;45308;-45
2023/01/01 05:16:14;;;;;;;;;7.00;6.50;;;;;15.64;52.06;100932.53;5046977;28;45485;-43
2023/01/01 05:18:40;;;;;;;;;8.25;5.75;;;;;15.63;52.21;100936.09;5050267;28;46114;-44
2023/01/01 05:21:08;;;;;;;;;9.75;5.00;;;;;15.63;52.16;100949.28;5041480;28;45690;-43
2023/01/01 05:23:34;;;;;;;;;6.00;5.00;;;;;15.62;52.16;100941.47;5041722;28;45302;-43
2023/01/01 05:25:59;;;;;;;;;8.75;7.00;;;;;15.61;52.18;100948.50;5042489;28;45502;-43
2023/01/01 05:28:25;;;;;;;;;9.25;6.00;;;;;15.57;52.52;100945.13;5040782;28;45350;-43
2023/01/01 05:30:51;;;;;;;;;17.00;12.00;;;;;15.57;52.88;100949.56;5041399;28;45540;-45
2023/01/01 05:33:18;;;;;;;;;8.75;6.00;;;;;15.56;52.78;100959.28;5047454;28;45411;-45
2023/01/01 05:35:43;;;;;;;;;11.00;10.00;;;;;15.55;52.66;100961.97;5048541;28;45435;-46
2023/01/01 05:38:09;;;;;;;;;8.50;6.00;;;;;15.56;52.47;100961.03;5042510;28;45890;-43
2023/01/01 05:40:37;;;;;;;;;7.00;4.00;;;;;15.55;52.30;100968.09;5052923;28;45790;-43
2023/01/01 05:43:02;;;;;;;;;7.75;5.50;;;;;15.53;52.59;100959.41;5045673;28;45246;-45
2023/01/01 05:45:28;;;;;;;;;7.50;5.75;;;;;15.55;52.62;100968.09;5049139;28;45458;-44
2023/01/01 05:47:53;;;;;;;;;5.25;5.25;;;;;15.56;52.68;100976.84;5037819;28;69239;-43
2023/01/01 05:50:18;;;;;;;;;8.25;7.25;;;;;15.55;53.08;100975.16;5045345;28;45307;-44
2023/01/01 05:52:44;;;;;;;;;6.75;5.00;;;;;15.52;52.80;100970.84;5044093;28;45324;-44
2023/01/01 05:55:09;;;;;;;;;5.25;4.00;;;;;15.51;53.23;100973.56;5052584;28;61527;-46
2023/01/01 05:57:34;;;;;;;;;15.50;7.75;;;;;15.49;53.57;100973.66;5042544;28;66896;-43
2023/01/01 06:00:00;;;;;;;;;10.50;6.50;;;;;15.50;53.05;100979.78;5046977;28;64049;-50
2023/01/01 06:02:25;;;;;;;;;6.00;5.00;;;;;15.51;53.12;100978.84;5042953;28;58393;-48
2023/01/01 06:04:50;;;;;;;;;5.25;5.25;;;;;15.50;53.06;100983.25;5043224;28;52784;-43
2023/01/01 06:07:16;;;;;;;;;7.00;4.00;;;;;15.50;52.82;100977.13;5046222;28;60610;-45
2023/01/01 06:09:41;;;;;;;;;6.50;4.00;;;;;15.50;53.54;100970.06;5044398;28;45317;-46
2023/01/01 06:12:07;;;;;;;;;7.25;5.00;;;;;15.50;53.22;100961.31;5047322;28;45347;-45
2023/01/01 06:14:32;;;;;;;;;9.25;7.75;;;;;15.49;53.93;100965.75;5047808;28;54095;-44
2023/01/01 06:16:57;;;;;;;;;8.75;7.00;;;;;15.47;53.50;100951.75;5043971;28;66199;-44
2023/01/01 06:19:23;;;;;;;;;9.25;5.75;;;;;15.49;53.12;100955.19;5050916;28;51158;-46
2023/01/01 06:21:48;;;;;;;;;7.50;6.00;;;;;15.49;53.50;100954.31;5042610;28;45538;-48
2023/01/01 06:24:14;;;;;;;;;7.25;5.00;;;;;15.48;53.62;100942.91;5039322;28;62471;-45
2023/01/01 06:26:39;;;;;;;;;9.25;7.25;;;;;15.46;53.55;100960.59;5049518;28;45642;-50
2023/01/01 06:29:04;;;;;;;;;9.25;7.50;;;;;15.45;53.85;100958.03;5052966;28;56323;-45
2023/01/01 06:31:30;;;;;;;;;7.25;6.25;;;;;15.45;53.50;100950.09;5039882;28;45660;-45
2023/01/01 06:33:56;;;;;;;;;10.50;5.25;;;;;15.44;54.01;100951.91;5045038;28;45540;-46
2023/01/01 06:36:23;;;;;;;;;14.50;5.00;;;;;15.44;53.66;100949.25;5039567;28;46199;-43
2023/01/01 06:38:50;;;;;;;;;9.50;5.75;;;;;15.44;53.59;100957.16;5049314;28;46200;-46
2023/01/01 06:41:18;;;;;;;;;5.00;5.00;;;;;15.45;53.73;100965.94;5048544;28;45453;-47
2023/01/01 06:43:44;;;;;;;;;6.00;4.00;;;;;15.45;53.69;100958.03;5047513;28;45460;-46
2023/01/01 06:46:15;;;;;;;;;7.00;4.75;;;;;15.45;54.27;100973.84;5047929;28;45496;-44
2023/01/01 06:48:41;;;;;;;;;9.50;4.75;;;;;15.44;53.98;100975.63;5038977;28;45875;-47
2023/01/01 06:51:18;;;;;;;;;6.75;5.00;;;;;15.44;53.85;100998.50;5039945;28;45542;-47
2023/01/01 06:53:44;;;;;;;;;6.00;6.00;;;;;15.45;53.72;101008.13;5055362;28;45472;-45
2023/01/01 06:56:10;;;;;;;;;6.00;6.00;;;;;15.45;53.64;101008.97;5047460;28;45657;-44
2023/01/01 06:58:35;;;;;;;;;4.00;4.00;;;;;15.44;53.87;101002.00;5053676;28;45225;-48
2023/01/01 07:01:13;;;;;;;;;6.75;4.00;;;;;15.45;53.88;101002.84;5044701;28;45316;-46
2023/01/01 07:03:39;;;;;;;;;4.75;4.25;;;;;15.45;53.83;101011.63;5054289;28;45413;-46
2023/01/01 07:06:05;;;;;;;;;6.75;5.25;;;;;15.47;53.85;101014.19;5046653;28;46187;-46
2023/01/01 07:08:30;;;;;;;;;7.75;5.50;;;;;15.46;54.18;101012.50;5055091;28;45475;-46
2023/01/01 07:10:56;;;;;;;;;10.75;5.00;;;;;15.44;53.82;101015.19;5053719;28;61024;-48
2023/01/01 07:13:24;;;;;;;;;4.75;3.25;;;;;15.43;53.75;101013.47;5060717;28;45485;-47
2023/01/01 07:15:49;;;;;;;;;8.00;4.00;;;;;15.42;54.17;101019.66;5035886;28;47241;-47
2023/01/01 07:18:14;;;;;;;;;4.00;3.50;;;;;15.43;53.85;101026.66;5046849;28;59101;-47
2023/01/01 07:20:40;;;;;;;;;6.00;4.00;;;;;15.43;54.03;101034.56;5051646;28;61075;-46
2023/01/01 07:23:05;;;;;;;;;5.00;3.25;;;;;15.42;53.98;101027.56;5052595;28;64677;-44
2023/01/01 07:25:30;;;;;;;;;9.50;4.75;;;;;15.40;54.31;101029.41;5043690;28;45980;-48
2023/01/01 07:27:56;;;;;;;;;8.50;5.00;;;;;15.39;54.58;101027.72;5044325;28;65540;-49
2023/01/01 07:30:21;;;;;;;;;3.50;3.00;;;;;15.38;54.38;101052.34;5045231;28;45343;-48
2023/01/01 07:32:46;;;;;;;;;5.75;4.00;;;;;15.37;54.25;101055.94;5043944;28;64355;-45
2023/01/01 07:35:12;;;;;;;;;6.00;4.50;;;;;15.36;54.40;101056.84;5044560;28;64308;-47
2023/01/01 07:37:37;;;;;;;;;8.00;4.75;;;;;15.36;54.46;101051.56;5041893;28;45339;-44
2023/01/01 07:40:03;;;;;;;;;12.00;7.25;;;;;15.36;54.47;101052.41;5055705;28;56491;-48
2023/01/01 07:42:28;;;;;;;;;8.25;4.75;;;;;15.37;54.61;101045.38;5048288;28;45454;-47
2023/01/01 07:44:53;;;;;;;;;5.00;4.00;;;;;15.38;54.60;101047.94;5042300;28;45367;-45
2023/01/01 07:47:24;;;;;;;;;5.75;4.00;;;;;15.35;54.64;101056.00;5047150;28;62016;-48
2023/01/01 07:49:49;;;;;;;;;10.00;4.00;;;;;15.36;54.86;101064.75;5045201;28;45462;-49
2023/01/01 07:52:15;;;;;;;;;8.25;3.00;;;;;15.35;54.38;101073.56;5043791;28;45518;-44
2023/01/01 07:54:40;;;;;;;;;8.50;5.50;;;;;15.34;54.95;101075.38;5040653;28;46257;-46
2023/01/01 07:57:06;;;;;;;;;5.00;4.75;;;;;15.33;54.96;101076.31;5050944;28;61846;-47
2023/01/01 07:59:31;;;;;;;;;4.00;4.00;;;;;15.33;54.44;101084.22;5041376;28;45281;-45
2023/01/01 08:01:57;;;;;;;;;5.25;3.00;;;;;15.35;54.67;101085.00;5043615;28;55376;-46
2023/01/01 08:04:22;;;;;;;;;7.50;5.00;;;;;15.31;54.84;101091.31;5046447;28;46463;-46
2023/01/01 08:06:47;;;;;;;;;5.25;4.00;;;;;15.30;55.11;101088.75;5043788;28;45410;-47
2023/01/01 08:09:13;;;;;;;;;9.00;3.25;;;;;15.31;54.91;101103.63;5049769;28;61076;-50
2023/01/01 08:11:38;;;;;;;;;5.75;5.75;;;;;15.31;54.83;101103.63;5048190;28;52135;-45
2023/01/01 08:14:03;;;;;;;;;5.00;4.00;;;;;15.32;54.93;101100.09;5045026;28;69042;-44
2023/01/01 08:16:29;;;;;;;;;5.00;5.00;;;;;15.32;54.94;101106.22;5044490;28;60000;-46
2023/01/01 08:18:54;;;;;;;;;3.00;3.00;;;;;15.34;54.87;101112.28;5040697;28;48306;-45
2023/01/01 08:21:19;;;;;;;;;4.50;4.25;;;;;15.34;54.99;101108.78;5053418;28;45365;-44
2023/01/01 08:23:45;;;;;;;;;10.25;5.75;;;;;15.35;54.91;101118.41;5052662;28;63523;-45
2023/01/01 08:26:15;;;;;;;;;10.00;6.00;;;;;15.37;55.24;101127.13;5048330;28;53733;-46
2023/01/01 08:28:41;;;;;;;;;7.75;6.00;;;;;15.36;54.97;101128.91;5043382;28;45291;-44
2023/01/01 08:31:06;;;;;;;;;10.25;6.00;;;;;15.37;55.06;101130.63;5048407;28;45334;-41
2023/01/01 08:33:31;;;;;;;;;8.75;4.25;;;;;15.39;54.77;101127.94;5039002;28;45455;-41
2023/01/01 08:35:57;;;;;;;;;5.25;3.50;;;;;15.41;55.00;101131.34;5043065;28;61458;-42
2023/01/01 08:38:22;;;;;;;;;6.75;5.25;;;;;15.41;55.23;101134.00;5042266;28;45505;-44
2023/01/01 08:40:48;;;;;;;;;4.50;4.00;;;;;15.42;54.90;101132.22;5041685;28;45682;-47
2023/01/01 08:43:13;;;;;;;;;6.25;5.25;;;;;15.43;54.80;101132.16;5041969;28;53859;-44
2023/01/01 08:45:39;;;;;;;;;6.50;5.00;;;;;15.43;55.07;101137.44;5051762;28;45407;-47
2023/01/01 08:48:04;;;;;;;;;7.00;3.50;;;;;15.44;55.15;101136.50;5047619;28;46273;-46
2023/01/01 08:50:30;;;;;;;;;9.00;4.25;;;;;15.44;55.07;101133.88;5049064;28;45498;-47
2023/01/01 08:52:57;;;;;;;;;5.00;3.00;;;;;15.43;55.21;101126.03;5040421;28;46007;-44
2023/01/01 08:55:22;;;;;;;;;8.50;5.50;;;;;15.43;54.95;101126.88;5051235;28;45764;-46
2023/01/01 08:57:47;;;;;;;;;10.00;5.00;;;;;15.43;54.83;101123.38;5043628;28;57329;-50
2023/01/01 09:00:13;;;;;;;;;8.00;6.00;;;;;15.43;54.81;101120.75;5049782;28;47098;-47
2023/01/01 09:02:38;;;;;;;;;9.00;6.00;;;;;15.43;55.05;101118.13;5040037;28;45909;-48
2023/01/01 09:05:04;;;;;;;;;9.75;5.00;;;;;15.42;55.18;101109.31;5045771;28;60558;-49
2023/01/01 09:07:30;;;;;;;;;6.00;4.00;;;;;15.43;54.90;101105.78;5040247;28;45403;-47
2023/01/01 09:09:55;;;;;;;;;6.25;3.50;;;;;15.43;55.23;101108.41;5051028;28;45466;-48
2023/01/01 09:12:20;;;;;;;;;4.00;3.50;;;;;15.43;55.18;101100.50;5041212;28;46208;-49
2023/01/01 09:14:46;;;;;;;;;5.25;4.75;;;;;15.43;55.39;101097.88;5050213;28;62501;-48
2023/01/01 09:17:12;;;;;;;;;4.75;4.00;;;;;15.45;55.13;101085.47;5041067;28;45233;-47
2023/01/01 09:19:37;;;;;;;;;6.75;3.50;;;;;15.46;55.37;101081.91;5043488;28;45458;-46
2023/01/01 09:22:02;;;;;;;;;6.00;3.50;;;;;15.47;55.49;101080.97;5047912;28;48116;-48
2023/01/01 09:24:28;;;;;;;;;5.25;5.00;;;;;15.47;55.42;101088.88;5049344;28;59383;-46
2023/01/01 09:26:53;;;;;;;;;8.00;6.50;;;;;15.46;55.44;101089.84;5039799;28;61246;-49
2023/01/01 09:29:20;;;;;;;;;10.50;6.00;;;;;15.50;55.17;101077.38;5042535;28;55466;-47
2023/01/01 09:31:47;;;;;;;;;6.75;5.75;;;;;15.49;55.02;101087.06;5047113;28;46127;-50
2023/01/01 09:34:12;;;;;;;;;5.00;4.50;;;;;15.52;55.17;101088.72;5038197;28;45348;-48
2023/01/01 09:36:37;;;;;;;;;7.00;5.00;;;;;15.53;55.55;101093.06;5047639;28;59576;-49
2023/01/01 09:39:03;;;;;;;;;9.25;4.50;;;;;15.55;55.37;101088.59;5047715;28;45525;-46
2023/01/01 09:41:52;;;;;;;;;5.50;4.00;;;;;15.56;55.22;101098.19;5054378;28;45354;-50
2023/01/01 09:44:29;;;;;;;;;5.00;5.00;;;;;15.58;54.98;101104.25;5032143;28;45724;-47
2023/01/01 09:46:59;;;;;;;;;6.25;5.00;;;;;15.57;55.13;101105.22;5044968;28;45268;-49
2023/01/01 09:49:31;;;;;;;;;7.25;5.00;;;;;15.57;55.19;101103.41;5042549;28;45337;-50
2023/01/01 09:52:00;;;;;;;;;5.25;4.00;;;;;15.62;55.35;101113.78;5050616;28;46542;-47
2023/01/01 09:54:32;;;;;;;;;4.50;2.75;;;;;15.65;55.37;101123.34;5040955;28;45734;-44
2023/01/01 09:56:59;;;;;;;;;4.00;4.00;;;;;15.65;55.18;101126.88;5050094;28;45450;-49
2023/01/01 09:59:25;;;;;;;;;7.00;4.25;;;;;15.66;55.16;101144.38;5027883;28;45431;-50
2023/01/01 10:02:02;;;;;;;;;8.75;6.00;;;;;15.69;55.17;101144.28;5042285;28;46370;-51
2023/01/01 10:04:51;;;;;;;;;6.50;4.00;;;;;15.71;55.21;101139.78;5039156;28;45271;-46
2023/01/01 10:07:38;;;;;;;;;8.00;6.00;;;;;15.71;55.02;101128.38;5044702;28;45304;-45
2023/01/01 10:10:33;;;;;;;;;9.00;6.00;;;;;15.72;55.09;101127.44;5047641;28;45491;-50
2023/01/01 10:13:13;;;;;;;;;5.25;4.50;;;;;15.74;55.13;101130.84;5043548;28;45549;-48
2023/01/01 10:15:44;;;;;;;;;7.25;4.75;;;;;15.75;55.22;101144.03;5046644;28;45549;-47
2023/01/01 10:18:16;;;;;;;;;8.25;4.00;;;;;15.77;55.03;101143.97;5035067;28;45498;-47
2023/01/01 10:20:46;;;;;;;;;8.50;5.00;;;;;15.76;55.01;101137.00;5052454;28;45408;-48
2023/01/01 10:23:24;;;;;;;;;5.75;4.25;;;;;15.74;55.18;101139.69;5047806;28;46392;-48
2023/01/01 10:25:50;;;;;;;;;7.75;5.00;;;;;15.71;55.08;101146.84;5033259;28;45890;-48
2023/01/01 10:28:20;;;;;;;;;4.50;4.25;;;;;15.74;55.20;101149.34;5049757;28;59861;-49
2023/01/01 10:30:46;;;;;;;;;8.50;5.25;;;;;15.75;55.04;101145.81;5053268;28;45502;-46
2023/01/01 10:33:13;;;;;;;;;11.25;7.00;;;;;15.73;55.20;101131.81;5048839;28;51145;-50
2023/01/01 10:35:50;;;;;;;;;6.00;5.00;;;;;15.71;54.94;101125.75;5053757;28;45944;-49
2023/01/01 10:38:22;;;;;;;;;13.75;10.75;;;;;15.73;55.38;101127.38;5044702;28;45449;-46
2023/01/01 10:40:48;;;;;;;;;9.25;6.00;;;;;15.78;55.17;101126.38;5049208;28;45261;-47
2023/01/01 10:43:13;;;;;;;;;7.00;7.00;;;;;15.79;55.21;101120.16;5054715;28;46224;-45
2023/01/01 10:45:43;;;;;;;;;7.50;5.50;;;;;15.81;55.22;101118.31;5048856;28;59875;-45
2023/01/01 10:48:13;;;;;;;;;11.25;7.75;;;;;15.81;54.75;101110.38;5047727;28;45503;-45
2023/01/01 10:50:45;;;;;;;;;8.00;7.25;;;;;15.81;54.90;101086.63;5044142;28;45280;-46
2023/01/01 10:53:31;;;;;;;;;8.00;5.75;;;;;15.83;54.59;101103.25;5044914;28;45336;-45
2023/01/01 10:56:04;;;;;;;;;6.25;5.25;;;;;15.82;54.98;101097.13;5055302;28;45979;-47
2023/01/01 10:58:41;;;;;;;;;10.00;6.50;;;;;15.83;54.80;101084.78;5030637;28;45651;-45
2023/01/01 11:01:10;;;;;;;;;10.25;9.00;;;;;15.82;54.63;101073.38;5047682;28;45553;-44
2023/01/01 11:03:35;;;;;;;;;10.50;8.50;;;;;15.82;54.80;101067.25;5054684;28;45247;-43
2023/01/01 11:06:20;;;;;;;;;12.75;8.50;;;;;15.82;55.11;101072.53;5044086;28;45449;-44
2023/01/01 11:08:48;;;;;;;;;8.50;8.25;;;;;15.79;54.62;101072.66;5048254;28;45353;-45
2023/01/01 11:11:40;;;;;;;;;10.50;6.50;;;;;15.79;55.22;101065.59;5047679;28;45539;-43
2023/01/01 11:14:21;;;;;;;;;9.50;8.50;;;;;15.78;54.97;101065.69;5040928;28;46460;-47
2023/01/01 11:16:48;;;;;;;;;7.75;7.75;;;;;15.78;55.32;101061.25;5044204;28;45913;-47
2023/01/01 11:19:22;;;;;;;;;8.75;7.25;;;;;15.78;55.14;101066.53;5041653;28;59419;-47
2023/01/01 11:21:48;;;;;;;;;7.50;7.50;;;;;15.78;55.05;101060.41;5043732;28;45253;-44
2023/01/01 11:24:23;;;;;;;;;7.00;7.00;;;;;15.76;55.03;101055.19;5049914;28;67286;-47
2023/01/01 11:26:49;;;;;;;;;6.00;5.50;;;;;15.77;55.23;101054.25;5043257;28;45267;-49
2023/01/01 11:29:29;;;;;;;;;7.75;4.50;;;;;15.77;55.18;101053.41;5046434;28;45209;-42
2023/01/01 11:31:56;;;;;;;;;7.75;5.75;;;;;15.77;55.35;101034.94;5042900;28;45444;-46
2023/01/01 11:34:21;;;;;;;;;8.50;5.75;;;;;15.77;55.07;101038.41;5045113;28;45588;-44